Time;durP1;ratioP1;P1;durP2;ratioP2;P2;SDS_P1;SDS_P2;PMS_P1;PMS_P2;Temp;Humidity;BMP_temperature;BMP_pressure;BME280_temperature;BME280_humidity;BME280_pressure;Samples;Min_cycle;Max_cycle;Signal;HPM_P1;HPM_P2
2022/07/15 00:02:23;;;;;;;4.57;4.13;;;17.80;75.60;;;;;;5051039;28;20494;-50
2022/07/15 00:04:50;;;;;;;7.83;4.07;;;17.70;75.90;;;;;;5068684;28;20485;-50
2022/07/15 00:07:17;;;;;;;7.00;4.70;;;17.70;76.30;;;;;;5056588;28;20482;-50
2022/07/15 00:12:27;;;;;;;4.37;3.83;;;17.40;76.40;;;;;;5054212;28;20497;-51
2022/07/15 00:14:55;;;;;;;4.37;3.77;;;17.30;76.90;;;;;;5051519;28;20475;-50
2022/07/15 00:17:22;;;;;;;7.87;4.73;;;17.30;77.10;;;;;;5052533;28;20471;-50
2022/07/15 00:19:49;;;;;;;5.60;4.70;;;17.30;77.80;;;;;;5052318;28;20854;-50
2022/07/15 00:22:16;;;;;;;6.97;5.07;;;17.20;76.80;;;;;;5064832;28;20487;-50
2022/07/15 00:24:42;;;;;;;8.00;4.40;;;17.20;77.00;;;;;;5062782;28;20479;-50
2022/07/15 00:27:09;;;;;;;5.73;4.27;;;17.10;77.20;;;;;;5044465;28;20478;-50
2022/07/15 00:29:36;;;;;;;4.30;3.87;;;17.00;77.10;;;;;;5043089;28;20486;-50
2022/07/15 00:32:04;;;;;;;5.93;4.20;;;16.90;78.10;;;;;;5058819;28;20482;-50
2022/07/15 00:34:31;;;;;;;10.50;5.43;;;16.90;78.10;;;;;;5060323;28;20517;-50
2022/07/15 00:36:58;;;;;;;6.90;5.23;;;16.70;77.80;;;;;;5049393;28;20501;-49
2022/07/15 00:39:25;;;;;;;4.60;4.10;;;16.50;79.10;;;;;;5056549;28;21006;-49
2022/07/15 00:41:51;;;;;;;9.03;5.27;;;16.30;80.00;;;;;;5056074;28;21000;-49
2022/07/15 00:44:18;;;;;;;4.53;3.87;;;16.20;80.00;;;;;;5053174;28;20490;-50
2022/07/15 00:46:45;;;;;;;6.63;4.40;;;16.00;80.60;;;;;;5056433;28;21055;-50
2022/07/15 00:49:13;;;;;;;8.10;5.43;;;15.90;81.00;;;;;;5063804;28;20465;-50
2022/07/15 00:51:43;;;;;;;6.00;4.70;;;15.70;81.80;;;;;;5054125;28;20476;-50
2022/07/15 00:54:11;;;;;;;6.90;4.60;;;15.60;82.60;;;;;;5049957;28;21062;-49
2022/07/15 00:56:42;;;;;;;6.90;4.37;;;15.50;82.50;;;;;;5048686;28;20919;-49
2022/07/15 00:59:10;;;;;;;10.80;5.10;;;15.60;81.60;;;;;;5060313;28;20479;-49
2022/07/15 01:01:38;;;;;;;9.30;4.60;;;15.60;81.00;;;;;;5052977;28;20480;-50
2022/07/15 01:04:06;;;;;;;5.50;3.80;;;15.70;81.00;;;;;;5060982;28;20483;-49
2022/07/15 01:06:34;;;;;;;14.37;5.17;;;15.70;80.30;;;;;;5053987;28;20569;-49
2022/07/15 01:09:00;;;;;;;6.83;4.40;;;15.60;80.30;;;;;;5060313;28;20475;-49
2022/07/15 01:11:30;;;;;;;10.30;4.10;;;15.50;80.70;;;;;;5056684;28;21241;-51
2022/07/15 01:13:57;;;;;;;4.30;3.90;;;15.50;80.40;;;;;;5060350;28;20527;-49
2022/07/15 01:16:24;;;;;;;4.40;3.80;;;15.50;81.00;;;;;;5059512;28;20482;-49
2022/07/15 01:18:50;;;;;;;4.90;4.40;;;15.50;80.00;;;;;;5062622;28;20478;-50
2022/07/15 01:21:19;;;;;;;8.00;4.67;;;15.60;80.00;;;;;;5061508;28;20475;-49
2022/07/15 01:23:45;;;;;;;4.63;4.13;;;15.60;80.10;;;;;;5058907;28;20478;-49
2022/07/15 01:26:13;;;;;;;6.30;4.57;;;15.60;80.40;;;;;;5056081;28;20486;-50
2022/07/15 01:28:40;;;;;;;8.57;4.13;;;15.60;80.10;;;;;;5056833;28;20846;-49
2022/07/15 01:31:07;;;;;;;6.40;4.20;;;15.50;79.90;;;;;;5070042;28;20478;-51
2022/07/15 01:33:34;;;;;;;4.47;3.73;;;15.40;80.40;;;;;;5061723;28;20485;-49
2022/07/15 01:36:02;;;;;;;13.27;4.73;;;15.40;81.30;;;;;;5063169;28;20470;-49
2022/07/15 01:38:30;;;;;;;6.33;4.53;;;15.40;82.00;;;;;;5061259;28;20475;-49
2022/07/15 01:40:57;;;;;;;5.00;4.50;;;15.40;81.70;;;;;;5055174;28;20498;-49
2022/07/15 01:43:24;;;;;;;7.53;4.43;;;15.40;80.80;;;;;;5057117;28;20478;-49
2022/07/15 01:45:50;;;;;;;5.50;4.90;;;15.40;81.50;;;;;;5061083;28;20572;-49
2022/07/15 01:51:02;;;;;;;4.77;4.20;;;15.40;80.50;;;;;;5064052;28;20490;-49
2022/07/15 01:53:30;;;;;;;5.60;4.03;;;15.30;79.80;;;;;;5063926;28;20482;-49
2022/07/15 01:55:57;;;;;;;7.33;3.90;;;15.30;80.20;;;;;;5064876;28;20475;-48
2022/07/15 01:58:24;;;;;;;6.83;4.60;;;15.20;80.80;;;;;;5059921;28;20482;-49
2022/07/15 02:00:51;;;;;;;5.90;5.30;;;15.30;81.60;;;;;;5067392;28;21322;-49
2022/07/15 02:03:17;;;;;;;12.20;5.10;;;15.20;80.10;;;;;;5065054;28;20480;-49
2022/07/15 02:05:44;;;;;;;7.70;5.20;;;15.20;80.60;;;;;;5048897;28;20995;-50
2022/07/15 02:08:11;;;;;;;9.60;5.23;;;15.20;80.70;;;;;;5057967;28;20478;-49
2022/07/15 02:10:42;;;;;;;6.27;4.40;;;14.90;80.70;;;;;;5063093;28;21046;-49
2022/07/15 02:13:09;;;;;;;5.37;4.33;;;15.00;80.60;;;;;;5058280;28;20490;-49
2022/07/15 02:15:36;;;;;;;8.47;4.83;;;15.00;81.00;;;;;;5059336;28;20490;-49
2022/07/15 02:18:03;;;;;;;7.70;4.20;;;14.90;81.50;;;;;;5054318;28;20835;-49
2022/07/15 02:20:30;;;;;;;4.33;3.93;;;14.90;81.50;;;;;;5052839;28;20490;-49
2022/07/15 02:22:57;;;;;;;5.30;4.33;;;14.80;81.60;;;;;;5047753;28;20957;-54
2022/07/15 02:25:25;;;;;;;8.50;4.23;;;14.60;83.00;;;;;;5057566;28;20566;-49
2022/07/15 02:27:56;;;;;;;6.83;5.10;;;14.60;82.80;;;;;;5053742;28;20481;-49
2022/07/15 02:30:23;;;;;;;8.83;5.80;;;14.50;83.10;;;;;;5055097;28;20479;-49
2022/07/15 02:32:50;;;;;;;5.53;3.97;;;14.30;83.30;;;;;;5055122;28;20485;-49
2022/07/15 02:35:17;;;;;;;9.33;4.53;;;14.20;83.30;;;;;;5063186;28;20475;-49
2022/07/15 02:37:44;;;;;;;7.97;6.57;;;14.10;83.40;;;;;;5056055;28;20475;-49
2022/07/15 02:40:12;;;;;;;5.60;5.00;;;14.20;83.10;;;;;;5056919;28;23225;-48
2022/07/15 02:42:39;;;;;;;5.70;4.90;;;14.20;83.00;;;;;;5056315;28;20483;-49
2022/07/15 02:45:07;;;;;;;7.50;4.87;;;14.30;83.20;;;;;;5057592;28;21098;-49
2022/07/15 02:47:34;;;;;;;11.57;5.40;;;14.20;83.20;;;;;;5055552;28;20495;-49
2022/07/15 02:50:01;;;;;;;9.93;4.97;;;14.30;83.10;;;;;;5051016;28;20475;-49
2022/07/15 02:52:28;;;;;;;8.80;5.80;;;14.30;83.60;;;;;;5058896;28;20487;-49
2022/07/15 02:54:54;;;;;;;6.27;5.33;;;14.40;84.20;;;;;;5057540;28;20494;-50
2022/07/15 02:57:21;;;;;;;7.70;5.43;;;14.40;84.90;;;;;;5052386;28;20497;-49
2022/07/15 02:59:48;;;;;;;8.60;7.57;;;14.40;84.00;;;;;;5026081;28;20468;-49
2022/07/15 03:02:16;;;;;;;5.40;4.70;;;14.40;83.10;;;;;;5051820;28;20486;-49
2022/07/15 03:04:43;;;;;;;11.47;7.13;;;14.50;82.60;;;;;;5057342;28;20494;-49
2022/07/15 03:07:10;;;;;;;9.00;5.80;;;14.40;82.70;;;;;;5055788;28;21071;-49
2022/07/15 03:09:37;;;;;;;10.00;7.37;;;14.50;83.20;;;;;;5037883;28;20585;-49
2022/07/15 03:12:04;;;;;;;5.90;4.37;;;14.30;82.40;;;;;;5059137;28;20474;-49
2022/07/15 03:14:31;;;;;;;6.73;5.10;;;14.30;82.60;;;;;;5044554;28;20508;-49
2022/07/15 03:16:58;;;;;;;7.67;5.03;;;14.30;83.50;;;;;;5025373;28;20795;-51
2022/07/15 03:19:26;;;;;;;8.00;5.33;;;14.20;82.70;;;;;;5043643;28;20863;-49
2022/07/15 03:21:53;;;;;;;9.30;6.33;;;14.10;83.50;;;;;;5060642;28;21015;-49
2022/07/15 03:24:19;;;;;;;8.47;5.03;;;14.00;83.50;;;;;;5051069;28;20508;-49
2022/07/15 03:26:46;;;;;;;8.80;6.70;;;13.90;83.30;;;;;;5057086;28;20488;-49
2022/07/15 03:29:15;;;;;;;7.43;6.00;;;13.90;83.10;;;;;;5059537;28;20876;-49
2022/07/15 03:31:42;;;;;;;7.33;5.40;;;13.90;83.70;;;;;;5061636;28;20472;-49
2022/07/15 03:34:09;;;;;;;8.00;5.13;;;13.90;83.60;;;;;;5058588;28;20849;-49
2022/07/15 03:36:38;;;;;;;7.23;6.30;;;13.90;83.30;;;;;;5055369;28;21009;-49
2022/07/15 03:39:05;;;;;;;4.97;4.47;;;13.90;83.40;;;;;;5062139;28;20988;-49
2022/07/15 03:41:32;;;;;;;6.53;5.10;;;13.90;83.80;;;;;;5048955;28;20905;-49
2022/07/15 03:43:59;;;;;;;9.03;5.23;;;13.90;83.30;;;;;;5050451;28;20483;-49
2022/07/15 03:46:25;;;;;;;8.00;5.80;;;13.70;84.20;;;;;;5057411;28;20466;-49
2022/07/15 03:48:52;;;;;;;10.60;6.90;;;13.60;85.40;;;;;;5052759;28;21035;-49
2022/07/15 03:51:19;;;;;;;5.80;4.77;;;13.50;84.90;;;;;;5058416;28;20486;-49
2022/07/15 03:53:47;;;;;;;6.80;5.90;;;13.60;84.50;;;;;;5057699;28;20474;-49
2022/07/15 03:56:14;;;;;;;9.13;5.17;;;13.60;85.50;;;;;;5058980;28;20505;-49
2022/07/15 03:58:41;;;;;;;9.73;6.97;;;13.70;83.90;;;;;;5055666;28;21123;-49
2022/07/15 04:01:08;;;;;;;6.63;4.90;;;13.70;84.50;;;;;;5041607;28;20490;-49
2022/07/15 04:03:35;;;;;;;6.60;5.40;;;13.70;84.30;;;;;;5054899;28;20901;-48
2022/07/15 04:06:01;;;;;;;10.20;5.63;;;13.70;83.60;;;;;;5052943;28;20475;-49
2022/07/15 04:08:28;;;;;;;7.50;5.73;;;13.60;84.50;;;;;;5027795;28;20963;-50
2022/07/15 04:10:56;;;;;;;5.33;4.83;;;13.70;85.20;;;;;;5059328;28;20490;-49
2022/07/15 04:13:23;;;;;;;13.07;4.30;;;13.60;84.60;;;;;;5058024;28;20486;-49
2022/07/15 04:15:50;;;;;;;6.23;5.60;;;13.60;84.10;;;;;;5046825;28;20479;-49
2022/07/15 04:18:17;;;;;;;5.67;5.10;;;13.70;84.50;;;;;;5056944;28;20987;-49
2022/07/15 04:20:43;;;;;;;7.50;6.40;;;13.60;85.10;;;;;;5049974;28;20488;-49
2022/07/15 04:23:10;;;;;;;5.63;4.53;;;13.50;85.00;;;;;;5048783;28;20995;-49
2022/07/15 04:25:37;;;;;;;6.30;5.67;;;13.60;85.50;;;;;;5039290;28;20513;-49
2022/07/15 04:28:05;;;;;;;5.57;5.07;;;13.50;86.00;;;;;;5047612;28;20481;-52
2022/07/15 04:30:32;;;;;;;8.37;5.43;;;13.50;86.60;;;;;;5059147;28;20487;-48
2022/07/15 04:32:58;;;;;;;5.53;4.50;;;13.50;86.50;;;;;;5061578;28;20474;-48
2022/07/15 04:35:25;;;;;;;5.93;5.43;;;13.60;86.70;;;;;;5061165;28;20478;-48
2022/07/15 04:37:52;;;;;;;6.30;5.70;;;13.70;86.40;;;;;;5061487;28;20490;-48
2022/07/15 04:40:19;;;;;;;13.77;5.63;;;13.80;87.10;;;;;;5063277;28;20489;-49
2022/07/15 04:42:45;;;;;;;7.13;6.53;;;13.90;86.60;;;;;;5050062;28;20491;-48
2022/07/15 04:45:14;;;;;;;10.27;5.47;;;14.10;86.30;;;;;;5052159;28;20493;-48
2022/07/15 04:47:40;;;;;;;6.23;5.00;;;14.10;86.50;;;;;;5054195;28;20485;-49
2022/07/15 04:52:52;;;;;;;9.50;6.23;;;14.20;87.20;;;;;;5054320;28;20489;-49
2022/07/15 04:55:19;;;;;;;5.93;5.33;;;14.30;88.30;;;;;;5060006;28;21428;-49
2022/07/15 04:57:46;;;;;;;6.87;6.03;;;14.40;89.10;;;;;;5057495;28;20494;-49
2022/07/15 05:00:14;;;;;;;5.70;5.10;;;14.50;88.50;;;;;;5062523;28;20482;-49
2022/07/15 05:02:41;;;;;;;8.73;7.47;;;;;;;;;;5064434;28;20975;-49
2022/07/15 05:05:08;;;;;;;9.23;5.53;;;14.70;88.30;;;;;;5066463;28;21126;-49
2022/07/15 05:07:35;;;;;;;10.00;6.53;;;14.80;88.30;;;;;;5058710;28;20562;-52
2022/07/15 05:10:02;;;;;;;7.20;5.97;;;;;;;;;;5063652;28;20485;-49
2022/07/15 05:12:29;;;;;;;7.47;5.00;;;14.60;88.70;;;;;;5067795;28;20493;-49
2022/07/15 05:14:56;;;;;;;7.93;5.07;;;14.70;88.50;;;;;;5067350;28;20487;-49
2022/07/15 05:17:24;;;;;;;5.47;4.97;;;14.90;89.00;;;;;;5067397;28;20509;-49
2022/07/15 05:19:52;;;;;;;8.80;4.93;;;15.00;88.80;;;;;;5063448;28;20485;-50
2022/07/15 05:22:19;;;;;;;6.50;5.90;;;;;;;;;;5060753;28;21137;-49
2022/07/15 05:24:46;;;;;;;9.40;6.70;;;15.30;89.60;;;;;;5062480;28;20486;-49
2022/07/15 05:27:13;;;;;;;6.93;5.07;;;15.40;89.70;;;;;;5058420;28;20910;-49
2022/07/15 05:29:40;;;;;;;7.73;6.90;;;15.50;89.20;;;;;;5061841;28;20490;-50
2022/07/15 05:32:07;;;;;;;8.53;5.67;;;15.70;90.20;;;;;;5060701;28;20968;-49
2022/07/15 05:34:35;;;;;;;6.93;6.23;;;15.80;90.60;;;;;;5059834;28;20903;-49
2022/07/15 05:37:02;;;;;;;7.23;5.40;;;16.00;90.40;;;;;;5057128;28;20486;-50
2022/07/15 05:39:29;;;;;;;7.20;6.07;;;16.10;90.60;;;;;;5058622;28;20840;-51
2022/07/15 05:41:58;;;;;;;5.30;4.80;;;16.30;90.30;;;;;;5055237;28;22480;-50
2022/07/15 05:44:25;;;;;;;7.00;5.07;;;16.60;89.80;;;;;;5061102;28;20482;-50
2022/07/15 05:46:51;;;;;;;5.43;5.00;;;16.90;89.30;;;;;;5050838;28;20486;-50
2022/07/15 05:49:18;;;;;;;6.73;5.60;;;17.10;88.70;;;;;;5056421;28;20504;-51
2022/07/15 05:51:46;;;;;;;10.03;6.53;;;17.10;89.10;;;;;;5062599;28;20486;-51
2022/07/15 05:54:14;;;;;;;6.70;4.80;;;17.30;89.60;;;;;;5059896;28;20557;-51
2022/07/15 05:56:42;;;;;;;7.33;6.07;;;17.50;88.70;;;;;;5044507;28;20566;-51
2022/07/15 05:59:08;;;;;;;7.33;4.40;;;17.60;88.50;;;;;;5042345;28;21132;-50
2022/07/15 06:01:35;;;;;;;7.07;4.30;;;17.80;88.20;;;;;;5058604;28;20490;-50
2022/07/15 06:04:02;;;;;;;6.77;5.63;;;17.90;86.10;;;;;;5058440;28;20471;-51
2022/07/15 06:06:30;;;;;;;7.90;5.17;;;18.00;86.90;;;;;;5060590;28;20478;-51
2022/07/15 06:08:58;;;;;;;9.10;4.40;;;18.20;84.60;;;;;;5056507;28;20550;-51
2022/07/15 06:11:24;;;;;;;6.33;4.70;;;18.20;85.00;;;;;;5061588;28;20483;-50
2022/07/15 06:13:51;;;;;;;6.43;4.97;;;18.30;84.30;;;;;;5059098;28;20478;-50
2022/07/15 06:16:18;;;;;;;4.50;4.10;;;18.40;83.10;;;;;;5058082;28;20972;-51
2022/07/15 06:18:45;;;;;;;6.07;4.70;;;18.40;83.60;;;;;;5054872;28;20570;-51
2022/07/15 06:21:12;;;;;;;5.50;4.37;;;18.50;83.30;;;;;;5065344;28;21047;-50
2022/07/15 06:23:39;;;;;;;8.67;4.20;;;18.70;83.60;;;;;;5061035;28;20589;-50
2022/07/15 06:26:07;;;;;;;3.80;3.50;;;18.90;81.50;;;;;;5050564;28;20978;-50
2022/07/15 06:28:34;;;;;;;5.40;3.33;;;18.90;81.90;;;;;;5048605;28;20476;-50
2022/07/15 06:31:01;;;;;;;8.77;3.87;;;19.20;80.30;;;;;;5059201;28;20996;-49
2022/07/15 06:33:27;;;;;;;5.03;3.37;;;19.20;80.80;;;;;;5057708;28;20479;-51
2022/07/15 06:35:55;;;;;;;4.50;3.43;;;19.60;79.90;;;;;;5057100;28;20483;-50
2022/07/15 06:38:22;;;;;;;6.00;3.10;;;19.80;78.70;;;;;;5062088;28;20932;-50
2022/07/15 06:40:49;;;;;;;4.40;4.03;;;19.90;78.00;;;;;;5062633;28;20494;-50
2022/07/15 06:43:17;;;;;;;4.07;3.73;;;20.00;77.90;;;;;;5059907;28;21082;-50
2022/07/15 06:45:44;;;;;;;4.43;3.70;;;20.20;78.20;;;;;;5065952;28;20481;-50
2022/07/15 06:48:10;;;;;;;6.53;3.70;;;20.30;78.80;;;;;;5056375;28;20482;-50
2022/07/15 06:50:37;;;;;;;7.70;3.57;;;20.50;76.40;;;;;;5070991;28;20482;-50
2022/07/15 06:53:04;;;;;;;5.40;2.97;;;20.50;76.10;;;;;;5063605;28;20462;-50
2022/07/15 06:55:30;;;;;;;14.27;3.40;;;20.60;77.10;;;;;;5063367;28;21003;-51
2022/07/15 06:57:57;;;;;;;3.90;2.80;;;20.80;75.30;;;;;;5057089;28;20482;-51
2022/07/15 07:00:25;;;;;;;5.37;3.70;;;20.90;75.10;;;;;;5065735;28;20471;-50
2022/07/15 07:02:52;;;;;;;5.40;4.07;;;20.90;74.40;;;;;;5057488;28;20568;-51
2022/07/15 07:05:19;;;;;;;3.10;2.70;;;21.00;74.10;;;;;;5064531;28;20475;-51
2022/07/15 07:07:46;;;;;;;3.50;3.20;;;21.10;74.50;;;;;;5057556;28;20509;-50
2022/07/15 07:10:13;;;;;;;5.13;3.17;;;21.20;74.90;;;;;;5057371;28;20486;-50
2022/07/15 07:12:40;;;;;;;8.50;4.27;;;21.50;73.80;;;;;;5061282;28;20480;-51
2022/07/15 07:15:09;;;;;;;5.33;2.87;;;21.50;74.10;;;;;;5059992;28;20483;-51
2022/07/15 07:17:37;;;;;;;6.60;4.33;;;21.70;73.30;;;;;;5050645;28;20708;-50
2022/07/15 07:20:04;;;;;;;4.13;3.00;;;21.80;73.90;;;;;;5038394;28;20627;-50
2022/07/15 07:22:31;;;;;;;3.50;2.80;;;22.00;73.00;;;;;;5041980;28;20490;-51
2022/07/15 07:24:59;;;;;;;3.37;3.07;;;22.10;73.10;;;;;;5041703;28;20491;-50
2022/07/15 07:27:26;;;;;;;4.83;3.10;;;22.30;72.80;;;;;;5039791;28;20598;-51
2022/07/15 07:29:52;;;;;;;3.23;2.93;;;22.60;72.40;;;;;;5048816;28;20478;-50
2022/07/15 07:32:19;;;;;;;5.13;3.37;;;23.00;71.70;;;;;;5060459;28;20472;-49
2022/07/15 07:34:47;;;;;;;6.57;3.87;;;23.20;70.90;;;;;;5061120;28;21084;-51
2022/07/15 07:37:14;;;;;;;7.63;3.73;;;23.30;70.20;;;;;;5053341;28;20576;-50
2022/07/15 07:39:41;;;;;;;7.67;3.60;;;23.50;70.00;;;;;;5045486;28;20478;-50
2022/07/15 07:42:07;;;;;;;3.80;2.90;;;23.60;69.10;;;;;;5049902;28;20469;-50
2022/07/15 07:44:34;;;;;;;6.10;3.00;;;23.90;69.60;;;;;;5060425;28;20824;-51
2022/07/15 07:47:01;;;;;;;6.07;3.33;;;23.90;70.40;;;;;;5048676;28;20950;-51
2022/07/15 07:49:27;;;;;;;4.27;3.10;;;24.10;69.30;;;;;;5058178;28;20482;-51
2022/07/15 07:51:55;;;;;;;5.03;3.30;;;24.30;68.30;;;;;;5060076;28;20483;-51
2022/07/15 07:54:22;;;;;;;4.53;2.70;;;24.40;69.40;;;;;;5061902;28;20481;-50
2022/07/15 07:56:49;;;;;;;15.07;4.20;;;24.50;68.50;;;;;;5057481;28;20988;-51
2022/07/15 07:59:16;;;;;;;5.23;2.77;;;24.40;66.80;;;;;;5065174;28;20908;-51
2022/07/15 08:01:43;;;;;;;5.03;4.57;;;24.40;67.50;;;;;;5062442;28;20965;-49
2022/07/15 08:04:10;;;;;;;4.33;3.63;;;24.30;67.20;;;;;;5038727;28;20572;-50
2022/07/15 08:06:38;;;;;;;4.90;3.23;;;24.30;68.70;;;;;;5053739;28;20483;-51
2022/07/15 08:09:06;;;;;;;5.10;2.80;;;24.10;67.40;;;;;;5064885;28;20480;-51
2022/07/15 08:11:33;;;;;;;10.90;3.40;;;24.10;68.00;;;;;;5058984;28;20489;-50
2022/07/15 08:13:59;;;;;;;6.67;3.17;;;24.00;67.70;;;;;;5062081;28;21025;-50
2022/07/15 08:16:27;;;;;;;4.50;3.17;;;24.40;67.40;;;;;;5061155;28;21382;-51
2022/07/15 08:18:54;;;;;;;3.80;2.80;;;24.60;67.00;;;;;;5060304;28;20877;-52
2022/07/15 08:21:20;;;;;;;4.03;3.03;;;24.70;67.20;;;;;;5068849;28;20568;-54
2022/07/15 08:23:47;;;;;;;4.17;3.27;;;25.10;65.80;;;;;;5067796;28;20482;-51
2022/07/15 08:26:22;;;;;;;7.53;3.00;;;25.40;65.80;;;;;;5059909;28;21006;-51
2022/07/15 08:28:49;;;;;;;6.60;3.40;;;25.60;65.50;;;;;;5065967;28;20690;-52
2022/07/15 08:31:16;;;;;;;4.00;3.10;;;25.80;65.00;;;;;;5068227;28;20474;-51
2022/07/15 08:33:43;;;;;;;4.40;2.90;;;25.90;65.40;;;;;;5068774;28;20591;-52
2022/07/15 08:36:11;;;;;;;5.97;4.20;;;26.00;63.00;;;;;;5068864;28;20960;-52
2022/07/15 08:38:39;;;;;;;5.13;3.77;;;26.20;65.20;;;;;;5062715;28;21614;-51
2022/07/15 08:41:06;;;;;;;7.00;3.40;;;26.40;64.50;;;;;;5068786;28;20488;-52
2022/07/15 08:43:34;;;;;;;7.23;3.57;;;26.60;63.60;;;;;;5065203;28;20487;-54
2022/07/15 08:46:01;;;;;;;6.87;3.20;;;26.70;61.90;;;;;;5065438;28;20500;-52
2022/07/15 08:48:29;;;;;;;5.83;3.67;;;26.90;62.50;;;;;;5063348;28;21305;-53
2022/07/15 08:50:56;;;;;;;5.30;2.90;;;27.00;63.10;;;;;;5066021;28;20593;-53
2022/07/15 08:53:23;;;;;;;5.40;3.50;;;27.00;62.40;;;;;;5072056;28;20581;-52
2022/07/15 08:55:50;;;;;;;4.90;4.30;;;27.20;61.60;;;;;;5052783;28;20489;-52
2022/07/15 08:58:17;;;;;;;5.03;4.30;;;27.10;61.90;;;;;;5051196;28;20471;-52
2022/07/15 09:00:45;;;;;;;6.43;4.03;;;27.20;61.10;;;;;;5062780;28;20478;-52
2022/07/15 09:03:13;;;;;;;4.57;3.00;;;27.40;60.60;;;;;;5065444;28;20456;-52
2022/07/15 09:05:39;;;;;;;7.83;3.47;;;27.40;61.30;;;;;;5064280;28;20486;-53
2022/07/15 09:08:08;;;;;;;4.30;3.90;;;27.40;59.50;;;;;;5065777;28;20478;-52
2022/07/15 09:10:46;;;;;;;5.10;3.40;;;27.60;60.40;;;;;;5066346;28;22052;-52
2022/07/15 09:13:22;;;;;;;9.33;3.87;;;27.60;60.40;;;;;;5057606;28;21397;-52
2022/07/15 09:15:51;;;;;;;6.80;4.73;;;28.00;59.30;;;;;;5063360;28;20468;-52
2022/07/15 09:18:19;;;;;;;4.90;3.70;;;28.00;58.60;;;;;;5054170;28;20475;-52
2022/07/15 09:20:47;;;;;;;4.07;3.60;;;28.10;59.80;;;;;;5046620;28;20500;-52
2022/07/15 09:23:20;;;;;;;9.80;3.30;;;28.10;58.60;;;;;;5065359;28;20976;-52
2022/07/15 09:25:49;;;;;;;7.63;5.13;;;28.10;59.00;;;;;;5064601;28;20459;-52
2022/07/15 09:28:16;;;;;;;4.00;3.60;;;28.00;58.10;;;;;;5041606;28;20492;-52
2022/07/15 09:33:38;;;;;;;5.37;3.13;;;28.00;59.10;;;;;;5052677;28;20531;-52
2022/07/15 09:36:16;;;;;;;4.23;2.80;;;27.90;58.90;;;;;;5065936;28;20470;-52
2022/07/15 09:38:45;;;;;;;7.93;4.37;;;28.20;60.20;;;;;;5061796;28;20477;-52
2022/07/15 09:41:26;;;;;;;4.23;3.37;;;28.30;59.70;;;;;;5063614;28;20474;-52
2022/07/15 09:43:55;;;;;;;5.13;3.70;;;28.60;58.00;;;;;;5054728;28;20475;-52
2022/07/15 09:46:26;;;;;;;10.10;3.50;;;28.90;58.60;;;;;;5032815;28;20472;-52
2022/07/15 09:48:54;;;;;;;3.70;3.17;;;29.10;58.30;;;;;;5033964;28;20457;-52
2022/07/15 09:51:22;;;;;;;5.00;4.07;;;29.20;57.80;;;;;;5066236;28;20823;-53
2022/07/15 09:53:50;;;;;;;5.33;3.33;;;29.40;57.40;;;;;;5063486;28;20482;-53
2022/07/15 09:56:26;;;;;;;5.30;3.77;;;29.60;57.10;;;;;;5050126;28;20491;-53
2022/07/15 09:58:52;;;;;;;4.40;4.00;;;29.50;57.20;;;;;;5050824;28;20501;-52
2022/07/15 10:01:19;;;;;;;6.17;3.57;;;29.30;56.90;;;;;;5049277;28;20823;-53
2022/07/15 10:03:46;;;;;;;4.10;3.70;;;29.30;55.90;;;;;;5064566;28;20969;-52
2022/07/15 10:06:16;;;;;;;8.00;3.53;;;29.40;56.60;;;;;;5053384;28;21002;-53
2022/07/15 10:08:48;;;;;;;6.90;4.23;;;29.50;55.60;;;;;;5061255;28;20585;-53
2022/07/15 10:11:16;;;;;;;7.23;3.63;;;29.40;55.70;;;;;;5057054;28;20518;-53
2022/07/15 10:14:37;;;;;;;8.80;4.70;;;29.50;55.90;;;;;;5060374;28;21022;-53
2022/07/15 10:17:38;;;;;;;7.40;3.80;;;29.50;56.90;;;;;;5051860;28;20504;-52
2022/07/15 10:20:25;;;;;;;7.23;3.43;;;29.30;56.80;;;;;;5044935;28;20919;-53
2022/07/15 10:23:02;;;;;;;3.40;3.10;;;29.30;55.60;;;;;;5044239;28;20759;-52
2022/07/15 10:25:53;;;;;;;3.60;3.30;;;29.50;56.50;;;;;;5032442;28;20596;-54
2022/07/15 10:28:31;;;;;;;4.17;2.90;;;29.70;55.80;;;;;;5033231;28;20484;-52
2022/07/15 10:31:16;;;;;;;3.10;2.80;;;29.70;56.00;;;;;;5031036;28;20489;-54
2022/07/15 10:33:43;;;;;;;6.67;4.33;;;29.60;54.60;;;;;;5049812;28;20482;-53
2022/07/15 10:36:10;;;;;;;4.70;3.43;;;29.30;54.10;;;;;;5058870;28;20498;-52
2022/07/15 10:38:39;;;;;;;8.53;4.03;;;28.90;54.50;;;;;;5044381;28;20487;-52
2022/07/15 10:41:08;;;;;;;5.17;2.87;;;28.70;56.20;;;;;;5051282;28;20479;-53
2022/07/15 10:43:49;;;;;;;3.87;3.50;;;28.20;55.40;;;;;;5046509;28;20833;-52
2022/07/15 10:46:26;;;;;;;6.43;3.97;;;28.20;56.20;;;;;;5051609;28;20730;-52
2022/07/15 10:49:09;;;;;;;8.27;4.43;;;28.10;56.80;;;;;;5051995;28;21002;-52
2022/07/15 10:51:47;;;;;;;7.07;4.27;;;28.20;56.40;;;;;;5034797;28;20483;-53
2022/07/15 10:54:49;;;;;;;4.67;3.60;;;28.40;55.80;;;;;;5048681;28;20479;-52
2022/07/15 10:57:19;;;;;;;7.40;3.50;;;28.50;54.60;;;;;;5044297;28;20805;-53
2022/07/15 10:59:51;;;;;;;3.77;3.43;;;28.40;55.00;;;;;;5044221;28;20486;-52
2022/07/15 11:02:20;;;;;;;5.03;3.20;;;28.40;54.60;;;;;;5054636;28;20490;-52
2022/07/15 11:04:48;;;;;;;6.73;3.70;;;28.40;55.10;;;;;;5054205;28;20574;-52
2022/07/15 11:07:26;;;;;;;6.83;3.17;;;28.50;56.80;;;;;;5048079;28;20481;-52
2022/07/15 11:09:56;;;;;;;4.13;3.73;;;28.40;55.10;;;;;;5057794;28;20478;-52
2022/07/15 11:12:24;;;;;;;4.60;2.47;;;28.40;55.60;;;;;;5053195;28;20483;-52
2022/07/15 11:14:53;;;;;;;8.30;3.83;;;28.30;56.10;;;;;;5041149;28;20479;-52
2022/07/15 11:17:24;;;;;;;3.70;3.17;;;28.10;56.00;;;;;;5041390;28;20468;-52
2022/07/15 11:19:54;;;;;;;6.07;3.60;;;27.90;55.60;;;;;;5052012;28;21118;-52
2022/07/15 11:22:23;;;;;;;3.03;2.73;;;27.90;56.30;;;;;;5050135;28;21011;-52
2022/07/15 11:24:49;;;;;;;5.03;4.47;;;27.70;56.00;;;;;;5047956;28;20847;-52
2022/07/15 11:27:21;;;;;;;6.10;3.03;;;27.50;55.50;;;;;;5046201;28;20474;-52
2022/07/15 11:29:50;;;;;;;5.53;3.30;;;27.50;55.90;;;;;;5048433;28;20469;-52
2022/07/15 11:32:19;;;;;;;3.97;3.10;;;27.50;56.60;;;;;;5056272;28;20487;-52
2022/07/15 11:34:49;;;;;;;4.13;3.53;;;27.50;55.40;;;;;;5050269;28;20584;-52
2022/07/15 11:37:19;;;;;;;3.03;2.83;;;27.60;55.40;;;;;;5039504;28;20467;-52
2022/07/15 11:39:48;;;;;;;5.40;3.73;;;27.40;56.10;;;;;;5044043;28;20492;-52
2022/07/15 11:45:11;;;;;;;6.10;2.80;;;27.60;56.20;;;;;;5039317;28;20511;-53
2022/07/15 11:47:51;;;;;;;3.40;3.10;;;27.70;55.50;;;;;;5055415;28;20504;-52
2022/07/15 11:50:19;;;;;;;6.73;3.00;;;27.60;54.70;;;;;;5061544;28;20452;-52
2022/07/15 11:52:46;;;;;;;4.53;4.13;;;28.00;54.00;;;;;;5058463;28;20844;-51
2022/07/15 11:55:13;;;;;;;3.60;3.07;;;28.00;55.40;;;;;;5059205;28;20919;-52
2022/07/15 11:57:46;;;;;;;6.00;3.37;;;28.40;54.50;;;;;;5057313;28;20486;-52
2022/07/15 12:00:14;;;;;;;3.73;2.70;;;28.40;54.80;;;;;;5051433;28;20577;-53
2022/07/15 12:02:41;;;;;;;4.90;3.60;;;;;;;;;;5062371;28;20861;-53
2022/07/15 12:05:10;;;;;;;4.20;2.60;;;28.80;54.40;;;;;;5060946;28;20459;-53
2022/07/15 12:07:41;;;;;;;4.40;2.70;;;28.80;53.80;;;;;;5056422;28;20489;-53
2022/07/15 12:10:09;;;;;;;3.33;2.90;;;28.70;53.20;;;;;;5060223;28;20466;-53
2022/07/15 12:12:42;;;;;;;2.70;2.50;;;28.60;53.60;;;;;;5055518;28;20479;-53
2022/07/15 12:15:10;;;;;;;3.70;3.40;;;28.70;53.80;;;;;;5061347;28;20724;-53
2022/07/15 12:17:38;;;;;;;3.93;3.00;;;28.60;53.80;;;;;;5055281;28;20493;-52
2022/07/15 12:20:06;;;;;;;3.83;3.43;;;28.40;54.70;;;;;;5051856;28;20533;-51
2022/07/15 12:22:33;;;;;;;5.03;3.30;;;28.50;54.80;;;;;;5061715;28;20478;-53
2022/07/15 12:25:00;;;;;;;3.93;3.10;;;28.60;55.50;;;;;;5060194;28;21050;-52
2022/07/15 12:27:34;;;;;;;3.50;3.10;;;29.10;54.80;;;;;;5055004;28;20482;-55
2022/07/15 12:30:04;;;;;;;3.23;2.80;;;29.20;54.10;;;;;;5061889;28;20453;-52
2022/07/15 12:32:31;;;;;;;3.50;2.63;;;29.40;54.10;;;;;;5062848;28;21003;-53
2022/07/15 12:34:59;;;;;;;5.07;3.60;;;29.40;54.90;;;;;;5062430;28;20482;-51
2022/07/15 12:37:28;;;;;;;4.20;2.90;;;29.70;54.30;;;;;;5054267;28;20953;-52
2022/07/15 12:39:56;;;;;;;3.33;3.03;;;29.90;51.20;;;;;;5060395;28;20486;-53
2022/07/15 12:42:23;;;;;;;7.70;2.60;;;30.00;54.70;;;;;;5057243;28;20990;-53
2022/07/15 12:45:14;;;;;;;3.13;2.53;;;30.10;52.10;;;;;;5057611;28;20482;-52
2022/07/15 12:48:02;;;;;;;2.83;2.63;;;30.20;52.70;;;;;;5042508;28;20470;-52
2022/07/15 12:50:29;;;;;;;2.87;2.67;;;30.30;52.40;;;;;;5060867;28;20453;-53
2022/07/15 12:52:57;;;;;;;4.57;3.17;;;30.40;52.30;;;;;;5059475;28;20537;-52
2022/07/15 12:55:26;;;;;;;4.60;3.10;;;30.40;47.40;;;;;;5060431;28;20509;-53
2022/07/15 12:58:03;;;;;;;3.00;2.73;;;30.20;50.10;;;;;;5050332;28;20474;-52
2022/07/15 13:00:31;;;;;;;4.53;2.70;;;30.00;51.10;;;;;;5058717;28;20494;-53
2022/07/15 13:03:05;;;;;;;3.07;2.63;;;29.70;51.80;;;;;;5061070;28;20561;-52
2022/07/15 13:05:33;;;;;;;5.63;3.10;;;29.60;51.40;;;;;;5056015;28;20816;-51
2022/07/15 13:08:01;;;;;;;9.23;3.00;;;29.50;52.60;;;;;;5062118;28;21015;-51
2022/07/15 13:10:30;;;;;;;3.40;2.77;;;29.60;53.10;;;;;;5063811;28;20488;-51